createdAt,value
2023-03-12T00:00:18.822Z,5.92
2023-03-12T00:02:50.379Z,5.94
2023-03-12T00:05:17.495Z,5.59
2023-03-12T00:07:44.924Z,4.59
2023-03-12T00:10:12.227Z,5.04
2023-03-12T00:12:39.248Z,4.42
2023-03-12T00:15:07.294Z,4.06
2023-03-12T00:17:34.595Z,4.03
2023-03-12T00:20:01.516Z,4.15
2023-03-12T00:22:28.638Z,4.67
2023-03-12T00:24:57.677Z,4.12
2023-03-12T00:27:34.790Z,4.24
2023-03-12T00:30:09.347Z,3.43
2023-03-12T00:32:36.760Z,4.00
2023-03-12T00:35:04.484Z,3.86
2023-03-12T00:37:33.196Z,4.41
2023-03-12T00:40:05.614Z,3.95
2023-03-12T00:42:32.746Z,4.38
2023-03-12T00:44:59.726Z,4.66
2023-03-12T00:47:27.412Z,4.08
2023-03-12T00:49:54.491Z,4.27
2023-03-12T00:52:24.332Z,4.29
2023-03-12T00:54:51.252Z,3.85
2023-03-12T00:57:18.119Z,3.90
2023-03-12T00:59:45.041Z,4.32
2023-03-12T01:02:13.489Z,4.28
2023-03-12T01:04:40.524Z,4.68
2023-03-12T01:07:07.533Z,4.16
2023-03-12T01:09:34.435Z,4.03
2023-03-12T01:12:02.786Z,4.25
2023-03-12T01:14:29.675Z,4.41
2023-03-12T01:16:56.916Z,3.98
2023-03-12T01:19:23.950Z,3.81
2023-03-12T01:21:50.846Z,4.45
2023-03-12T01:24:18.043Z,4.38
2023-03-12T01:26:44.965Z,4.49
2023-03-12T01:29:11.888Z,4.76
2023-03-12T01:31:38.972Z,4.70
2023-03-12T01:34:06.078Z,4.86
2023-03-12T01:36:33.042Z,4.62
2023-03-12T01:39:00.515Z,4.84
2023-03-12T01:41:32.637Z,4.94
2023-03-12T01:44:03.834Z,4.87
2023-03-12T01:46:30.801Z,5.20
2023-03-12T01:49:08.018Z,4.99
2023-03-12T01:51:40.999Z,5.24
2023-03-12T01:54:17.295Z,5.07
2023-03-12T01:56:44.651Z,5.11
2023-03-12T01:59:17.405Z,5.17
2023-03-12T02:01:44.987Z,5.07
2023-03-12T02:04:13.279Z,4.16
2023-03-12T02:06:53.519Z,5.01
2023-03-12T02:09:21.737Z,4.95
2023-03-12T02:11:48.990Z,4.81
2023-03-12T02:14:16.448Z,4.85
2023-03-12T02:16:44.538Z,4.76
2023-03-12T02:19:50.401Z,4.63
2023-03-12T02:22:17.481Z,4.70
2023-03-12T02:25:32.204Z,4.89
2023-03-12T02:28:00.790Z,4.66
2023-03-12T02:30:30.344Z,4.72
2023-03-12T02:33:00.176Z,4.54
2023-03-12T02:35:27.663Z,4.15
2023-03-12T02:37:56.557Z,4.34
2023-03-12T02:40:39.467Z,4.08
2023-03-12T02:43:08.112Z,4.26
2023-03-12T02:45:36.404Z,4.02
2023-03-12T02:48:04.450Z,3.64
2023-03-12T02:50:31.359Z,3.53
2023-03-12T02:52:58.300Z,3.61
2023-03-12T02:55:25.230Z,3.59
2023-03-12T02:57:52.100Z,3.27
2023-03-12T03:00:19.657Z,3.37
2023-03-12T03:02:46.601Z,3.35
2023-03-12T03:05:13.618Z,3.13
2023-03-12T03:07:40.650Z,3.00
2023-03-12T03:10:08.467Z,2.79
2023-03-12T03:12:36.788Z,2.80
2023-03-12T03:15:04.542Z,2.73
2023-03-12T03:17:31.423Z,2.77
2023-03-12T03:19:58.313Z,2.96
2023-03-12T03:22:25.194Z,2.85
2023-03-12T03:24:54.050Z,2.71
2023-03-12T03:27:21.030Z,2.90
2023-03-12T03:32:15.036Z,2.72
2023-03-12T03:34:42.001Z,2.40
2023-03-12T03:37:09.129Z,2.98
2023-03-12T03:39:36.056Z,3.19
2023-03-12T03:42:03.074Z,3.03
2023-03-12T03:44:30.683Z,3.17
2023-03-12T03:46:58.026Z,3.39
2023-03-12T03:49:25.772Z,3.42
2023-03-12T03:51:52.800Z,3.54
2023-03-12T03:54:20.064Z,3.70
2023-03-12T03:56:47.781Z,3.74
2023-03-12T03:59:15.332Z,3.72
2023-03-12T04:01:42.415Z,3.89
2023-03-12T04:04:09.302Z,3.97
2023-03-12T04:06:36.228Z,4.09
2023-03-12T04:09:03.434Z,4.16
2023-03-12T04:11:30.521Z,4.05
2023-03-12T04:13:58.714Z,3.92
2023-03-12T04:16:25.834Z,4.03
2023-03-12T04:18:52.688Z,3.94
2023-03-12T04:21:19.994Z,4.11
2023-03-12T04:23:46.865Z,4.15
2023-03-12T04:26:13.946Z,4.01
2023-03-12T04:28:40.863Z,4.08
2023-03-12T04:31:08.799Z,4.11
2023-03-12T04:33:38.805Z,3.93
2023-03-12T04:36:06.926Z,3.99
2023-03-12T04:38:34.443Z,4.05
2023-03-12T04:41:08.204Z,3.91
2023-03-12T04:43:35.673Z,3.87
2023-03-12T04:46:03.086Z,3.63
2023-03-12T04:48:29.995Z,3.67
2023-03-12T04:50:57.154Z,3.58
2023-03-12T04:53:24.856Z,3.61
2023-03-12T04:55:52.063Z,3.64
2023-03-12T04:58:20.136Z,2.98
2023-03-12T05:00:49.022Z,3.32
2023-03-12T05:03:16.695Z,3.55
2023-03-12T05:05:43.785Z,3.42
2023-03-12T05:08:10.743Z,3.40
2023-03-12T05:10:37.614Z,3.34
2023-03-12T05:13:04.555Z,2.98
2023-03-12T05:15:31.476Z,3.33
2023-03-12T05:17:58.372Z,3.41
2023-03-12T05:20:25.509Z,3.36
2023-03-12T05:22:52.642Z,3.41
2023-03-12T05:25:19.527Z,3.44
2023-03-12T05:27:46.361Z,2.96
2023-03-12T05:30:13.584Z,3.00
2023-03-12T05:32:40.587Z,3.19
2023-03-12T05:35:08.130Z,3.32
2023-03-12T05:37:34.977Z,3.50
2023-03-12T05:40:01.893Z,3.44
2023-03-12T05:42:28.838Z,3.74
2023-03-12T05:44:55.715Z,3.90
2023-03-12T05:47:22.798Z,4.43
2023-03-12T05:49:49.880Z,4.78
2023-03-12T05:52:17.017Z,5.12
2023-03-12T05:54:43.966Z,5.85
2023-03-12T05:57:13.372Z,6.50
2023-03-12T05:59:40.389Z,7.07
2023-03-12T06:02:07.870Z,7.64
2023-03-12T06:04:34.881Z,8.00
2023-03-12T06:07:01.853Z,8.46
2023-03-12T06:09:28.763Z,8.99
2023-03-12T06:11:55.822Z,10.00
2023-03-12T06:14:22.861Z,11.04
2023-03-12T06:16:49.835Z,12.25
2023-03-12T06:19:16.816Z,13.30
2023-03-12T06:21:44.381Z,13.73
2023-03-12T06:24:11.302Z,13.85
2023-03-12T06:26:38.327Z,13.83
2023-03-12T06:29:05.206Z,13.45
2023-03-12T06:31:32.207Z,13.23
2023-03-12T06:33:59.137Z,13.23
2023-03-12T06:36:26.263Z,12.88
2023-03-12T06:38:55.853Z,12.72
2023-03-12T06:41:23.994Z,12.92
2023-03-12T06:43:50.960Z,12.71
2023-03-12T06:46:22.008Z,12.62
2023-03-12T06:48:49.640Z,13.17
2023-03-12T06:51:17.588Z,12.99
2023-03-12T06:53:45.675Z,13.22
2023-03-12T06:56:13.348Z,13.13
2023-03-12T06:58:40.428Z,12.99
2023-03-12T07:01:07.941Z,12.87
2023-03-12T07:03:35.089Z,12.90
2023-03-12T07:06:02.115Z,13.15
2023-03-12T07:08:32.675Z,12.80
2023-03-12T07:11:01.669Z,12.46
2023-03-12T07:13:29.489Z,12.84
2023-03-12T07:15:56.514Z,12.23
2023-03-12T07:18:23.512Z,12.99
2023-03-12T07:20:50.384Z,13.12
2023-03-12T07:23:17.208Z,10.18
2023-03-12T07:25:45.038Z,10.62
2023-03-12T07:28:13.017Z,9.19
2023-03-12T07:30:40.735Z,9.73
2023-03-12T07:33:10.766Z,10.77
2023-03-12T07:35:41.434Z,11.13
2023-03-12T07:38:09.369Z,10.67
2023-03-12T07:40:37.035Z,10.68
2023-03-12T07:43:07.160Z,8.43
2023-03-12T07:45:34.308Z,9.38
2023-03-12T07:48:01.195Z,11.38
2023-03-12T07:50:28.113Z,10.09
2023-03-12T07:52:55.072Z,10.00
2023-03-12T07:55:22.106Z,10.07
2023-03-12T07:57:49.312Z,10.55
2023-03-12T08:00:17.364Z,10.36
2023-03-12T08:02:44.708Z,10.91
2023-03-12T08:05:12.037Z,10.17
2023-03-12T08:07:38.958Z,9.74
2023-03-12T08:10:08.306Z,9.62
2023-03-12T08:12:35.662Z,10.76
2023-03-12T08:15:02.571Z,10.96
2023-03-12T08:17:29.472Z,12.83
2023-03-12T08:19:56.569Z,13.63
2023-03-12T08:22:23.491Z,14.49
2023-03-12T08:24:50.386Z,13.73
2023-03-12T08:27:17.299Z,14.02
2023-03-12T08:29:44.150Z,13.97
2023-03-12T08:32:11.135Z,14.20
2023-03-12T08:34:38.336Z,13.67
2023-03-12T08:37:05.980Z,14.23
2023-03-12T08:39:33.569Z,14.55
2023-03-12T08:42:01.164Z,15.26
2023-03-12T08:44:28.216Z,14.56
2023-03-12T08:46:55.329Z,13.51
2023-03-12T08:49:23.087Z,14.67
2023-03-12T08:51:52.097Z,14.70
2023-03-12T08:54:20.637Z,14.40
2023-03-12T08:56:53.847Z,15.29
2023-03-12T08:59:22.574Z,15.22
2023-03-12T09:01:50.070Z,15.80
2023-03-12T09:04:17.258Z,16.21
2023-03-12T09:06:44.331Z,16.60
2023-03-12T09:09:11.803Z,16.29
2023-03-12T09:11:42.682Z,15.61
2023-03-12T09:16:58.383Z,15.76
2023-03-12T09:19:25.475Z,15.60
2023-03-12T09:21:52.517Z,14.39
2023-03-12T09:24:19.858Z,14.26
2023-03-12T09:26:47.031Z,15.03
2023-03-12T09:29:14.915Z,15.47
2023-03-12T09:31:41.960Z,15.53
2023-03-12T09:34:09.008Z,15.53
2023-03-12T09:36:36.248Z,15.88
2023-03-12T09:39:04.007Z,14.11
2023-03-12T09:41:35.674Z,15.27
2023-03-12T09:44:17.459Z,15.99
2023-03-12T09:46:51.166Z,15.71
2023-03-12T09:49:36.367Z,15.13
2023-03-12T09:52:13.506Z,14.80
2023-03-12T09:55:07.275Z,15.10
2023-03-12T09:57:34.602Z,15.58
2023-03-12T10:00:01.677Z,12.93
2023-03-12T10:03:05.438Z,14.03
2023-03-12T10:05:51.125Z,12.85
2023-03-12T10:08:32.192Z,13.82
2023-03-12T10:11:18.430Z,13.19
2023-03-12T10:14:12.149Z,13.72
2023-03-12T10:16:52.452Z,12.58
2023-03-12T10:19:25.323Z,13.45
2023-03-12T10:22:06.707Z,13.47
2023-03-12T10:25:00.195Z,13.72
2023-03-12T10:27:30.567Z,14.36
2023-03-12T10:29:58.494Z,12.30
2023-03-12T10:32:33.549Z,12.27
2023-03-12T10:35:14.799Z,11.83
2023-03-12T10:37:46.531Z,12.75
2023-03-12T10:40:16.990Z,13.44
2023-03-12T10:42:44.115Z,13.58
2023-03-12T10:45:10.978Z,12.78
2023-03-12T10:47:43.089Z,12.33
2023-03-12T10:50:28.671Z,13.37
2023-03-12T10:53:20.180Z,12.25
2023-03-12T10:56:20.480Z,14.06
2023-03-12T10:58:53.040Z,14.68
2023-03-12T11:01:26.420Z,13.55
2023-03-12T11:04:08.090Z,13.34
2023-03-12T11:06:35.977Z,13.80
2023-03-12T11:09:23.060Z,13.95
2023-03-12T11:11:51.297Z,14.08
2023-03-12T11:14:28.365Z,14.43
2023-03-12T11:16:56.990Z,15.41
2023-03-12T11:19:31.447Z,13.55
2023-03-12T11:22:05.028Z,12.86
2023-03-12T11:24:32.109Z,15.02
2023-03-12T11:27:25.658Z,13.39
2023-03-12T11:29:53.483Z,11.34
2023-03-12T11:32:31.774Z,12.00
2023-03-12T11:34:59.268Z,13.87
2023-03-12T11:37:26.184Z,13.85
2023-03-12T11:40:10.145Z,12.36
2023-03-12T11:42:36.970Z,13.92
2023-03-12T11:45:45.450Z,13.56
2023-03-12T11:48:48.503Z,11.93
2023-03-12T11:51:33.465Z,13.53
2023-03-12T11:54:28.390Z,14.51
2023-03-12T11:57:38.320Z,14.06
2023-03-12T12:00:19.034Z,14.50
2023-03-12T12:03:04.473Z,15.79
2023-03-12T12:06:01.354Z,16.82
2023-03-12T12:08:57.521Z,15.89
2023-03-12T12:11:31.500Z,15.06
2023-03-12T12:14:15.435Z,16.54
2023-03-12T12:16:54.481Z,17.25
2023-03-12T12:19:48.241Z,14.77
2023-03-12T12:22:33.633Z,16.45
2023-03-12T12:25:21.682Z,17.16
2023-03-12T12:28:07.021Z,17.74
2023-03-12T12:30:48.551Z,17.08
2023-03-12T12:33:24.060Z,17.93
2023-03-12T12:35:51.662Z,18.38
2023-03-12T12:38:30.693Z,18.31
2023-03-12T12:41:08.579Z,18.99
2023-03-12T12:43:38.553Z,19.17
2023-03-12T12:46:17.089Z,19.34
2023-03-12T12:48:51.832Z,17.66
2023-03-12T12:51:27.508Z,17.00
2023-03-12T12:54:23.892Z,18.55
2023-03-12T12:57:19.052Z,18.67
2023-03-12T12:59:52.351Z,19.73
2023-03-12T13:02:27.727Z,19.86
2023-03-12T13:04:59.255Z,20.45
2023-03-12T13:07:27.951Z,20.42
2023-03-12T13:09:57.998Z,20.49
2023-03-12T13:12:31.338Z,18.99
2023-03-12T13:14:59.842Z,19.62
2023-03-12T13:17:32.482Z,19.89
2023-03-12T13:20:18.075Z,20.34
2023-03-12T13:23:17.473Z,20.73
2023-03-12T13:26:06.756Z,20.70
2023-03-12T13:29:11.337Z,21.26
2023-03-12T13:31:39.820Z,21.51
2023-03-12T13:34:06.598Z,21.48
2023-03-12T13:36:37.801Z,21.11
2023-03-12T13:39:10.461Z,20.75
2023-03-12T13:41:40.338Z,19.57
2023-03-12T13:44:29.278Z,19.80
2023-03-12T13:47:05.520Z,20.02
2023-03-12T13:50:25.076Z,18.50
2023-03-12T13:53:08.660Z,19.00
2023-03-12T13:55:37.525Z,17.01
2023-03-12T13:58:07.415Z,15.42
2023-03-12T14:00:44.253Z,14.49
2023-03-12T14:03:31.601Z,15.51
2023-03-12T14:06:07.790Z,15.93
2023-03-12T14:09:06.078Z,14.21
2023-03-12T14:11:53.623Z,14.28
2023-03-12T14:14:49.083Z,13.81
2023-03-12T14:17:18.382Z,14.09
2023-03-12T14:19:56.645Z,14.94
2023-03-12T14:22:24.794Z,15.91
2023-03-12T14:24:57.452Z,16.46
2023-03-12T14:27:31.113Z,16.70
2023-03-12T14:30:20.785Z,17.07
2023-03-12T14:32:48.432Z,17.06
2023-03-12T14:35:26.065Z,16.81
2023-03-12T14:38:07.179Z,16.85
2023-03-12T14:41:00.859Z,16.91
2023-03-12T14:43:35.566Z,17.34
2023-03-12T14:46:13.725Z,17.15
2023-03-12T14:48:40.783Z,16.93
2023-03-12T14:51:08.320Z,17.17
2023-03-12T14:53:39.882Z,17.09
2023-03-12T14:56:12.990Z,17.36
2023-03-12T14:58:46.313Z,17.78
2023-03-12T15:01:26.280Z,18.11
2023-03-12T15:03:58.524Z,18.47
2023-03-12T15:06:31.237Z,17.89
2023-03-12T15:08:59.874Z,17.71
2023-03-12T15:11:29.142Z,17.77
2023-03-12T15:14:02.600Z,16.76
2023-03-12T15:16:29.940Z,15.95
2023-03-12T15:18:57.570Z,15.70
2023-03-12T15:21:24.901Z,16.28
2023-03-12T15:23:52.008Z,16.44
2023-03-12T15:26:22.123Z,15.77
2023-03-12T15:29:05.754Z,15.94
2023-03-12T15:31:43.079Z,15.77
2023-03-12T15:34:13.223Z,15.30
2023-03-12T15:36:49.040Z,15.78
2023-03-12T15:39:26.845Z,15.57
2023-03-12T15:41:55.697Z,15.70
2023-03-12T15:44:26.412Z,15.78
2023-03-12T15:46:57.197Z,16.01
2023-03-12T15:49:28.576Z,15.79
2023-03-12T15:52:04.017Z,15.77
2023-03-12T15:54:31.644Z,15.73
2023-03-12T15:57:34.687Z,15.52
2023-03-12T16:00:17.367Z,15.63
2023-03-12T16:02:57.842Z,15.48
2023-03-12T16:05:39.267Z,15.58
2023-03-12T16:08:22.918Z,15.56
2023-03-12T16:10:50.647Z,15.36
2023-03-12T16:13:23.289Z,15.29
2023-03-12T16:15:50.216Z,15.30
2023-03-12T16:18:20.098Z,15.42
2023-03-12T16:20:48.053Z,14.79
2023-03-12T16:23:16.014Z,14.88
2023-03-12T16:25:46.225Z,14.93
2023-03-12T16:28:18.797Z,14.59
2023-03-12T16:30:45.847Z,14.80
2023-03-12T16:33:15.518Z,14.81
2023-03-12T16:35:42.871Z,14.87
2023-03-12T16:38:09.863Z,14.94
2023-03-12T16:40:40.735Z,14.60
2023-03-12T16:43:15.802Z,14.69
2023-03-12T16:45:44.842Z,14.32
2023-03-12T16:48:15.796Z,14.24
2023-03-12T16:50:48.143Z,13.27
2023-03-12T16:53:15.189Z,12.71
2023-03-12T16:55:55.257Z,11.98
2023-03-12T16:58:24.149Z,11.14
2023-03-12T17:00:52.246Z,11.38
2023-03-12T17:03:36.061Z,11.59
2023-03-12T17:06:04.480Z,11.84
2023-03-12T17:08:31.491Z,11.90
2023-03-12T17:11:00.152Z,11.60
2023-03-12T17:13:29.342Z,11.56
2023-03-12T17:15:56.928Z,11.19
2023-03-12T17:18:24.151Z,11.06
2023-03-12T17:20:52.091Z,10.67
2023-03-12T17:23:19.461Z,10.92
2023-03-12T17:25:46.670Z,10.93
2023-03-12T17:28:15.574Z,11.28
2023-03-12T17:30:43.531Z,11.31
2023-03-12T17:33:14.350Z,11.44
2023-03-12T17:35:42.357Z,11.77
2023-03-12T17:38:09.995Z,11.80
2023-03-12T17:40:43.796Z,11.91
2023-03-12T17:43:10.830Z,12.00
2023-03-12T17:45:37.891Z,11.80
2023-03-12T17:48:05.032Z,11.96
2023-03-12T17:50:31.954Z,11.86
2023-03-12T17:52:58.792Z,11.99
2023-03-12T17:55:25.882Z,12.09
2023-03-12T17:57:52.824Z,12.04
2023-03-12T18:00:22.066Z,12.12
2023-03-12T18:02:49.465Z,11.98
2023-03-12T18:05:16.534Z,11.81
2023-03-12T18:07:43.461Z,11.90
2023-03-12T18:10:11.612Z,11.86
2023-03-12T18:12:40.343Z,11.85
2023-03-12T18:15:09.419Z,11.88
2023-03-12T18:17:36.389Z,11.79
2023-03-12T18:20:09.631Z,11.82
2023-03-12T18:22:38.794Z,11.80
2023-03-12T18:25:06.856Z,11.67
2023-03-12T18:27:33.821Z,11.59
2023-03-12T18:30:01.051Z,11.32
2023-03-12T18:32:27.946Z,11.32
2023-03-12T18:34:55.106Z,10.87
2023-03-12T18:37:23.186Z,10.68
2023-03-12T18:39:50.118Z,10.66
2023-03-12T18:42:17.575Z,10.67
2023-03-12T18:44:44.644Z,10.37
2023-03-12T18:47:11.518Z,10.36
2023-03-12T18:49:38.557Z,10.25
2023-03-12T18:52:05.671Z,10.29
2023-03-12T18:54:33.915Z,10.26
2023-03-12T18:57:01.598Z,10.23
2023-03-12T18:59:31.850Z,10.22
2023-03-12T19:01:59.307Z,10.32
2023-03-12T19:04:26.438Z,10.46
2023-03-12T19:06:53.491Z,9.99
2023-03-12T19:09:20.696Z,9.97
2023-03-12T19:11:48.872Z,9.98
2023-03-12T19:14:15.907Z,9.98
2023-03-12T19:16:42.925Z,9.85
2023-03-12T19:19:09.964Z,9.78
2023-03-12T19:21:36.890Z,9.74
2023-03-12T19:24:04.106Z,9.68
2023-03-12T19:26:31.150Z,9.71
2023-03-12T19:28:58.188Z,9.50
2023-03-12T19:31:25.795Z,9.31
2023-03-12T19:33:52.753Z,9.28
2023-03-12T19:36:19.923Z,9.39
2023-03-12T19:38:46.843Z,9.34
2023-03-12T19:41:13.824Z,8.99
2023-03-12T19:43:41.608Z,9.20
2023-03-12T19:46:08.785Z,9.08
2023-03-12T19:48:35.746Z,8.93
2023-03-12T19:51:10.581Z,8.83
2023-03-12T19:53:38.110Z,9.00
2023-03-12T19:56:05.635Z,8.87
2023-03-12T19:58:32.528Z,8.75
2023-03-12T20:01:03.832Z,8.69
2023-03-12T20:03:30.973Z,8.70
2023-03-12T20:05:57.904Z,8.95
2023-03-12T20:08:30.448Z,8.44
2023-03-12T20:11:09.133Z,8.03
2023-03-12T20:13:38.162Z,8.25
2023-03-12T20:16:06.944Z,8.13
2023-03-12T20:18:34.155Z,8.12
2023-03-12T20:21:01.130Z,8.07
2023-03-12T20:23:27.979Z,7.72
2023-03-12T20:25:54.911Z,8.09
2023-03-12T20:28:21.831Z,7.81
2023-03-12T20:30:49.425Z,8.04
2023-03-12T20:33:16.472Z,7.92
2023-03-12T20:35:43.407Z,7.80
2023-03-12T20:38:10.343Z,7.95
2023-03-12T20:40:37.838Z,7.99
2023-03-12T20:43:05.311Z,7.85
2023-03-12T20:45:33.536Z,7.35
2023-03-12T20:48:01.135Z,7.42
2023-03-12T20:50:29.157Z,7.34
2023-03-12T20:52:56.144Z,7.58
2023-03-12T20:55:23.234Z,7.71
2023-03-12T20:57:50.182Z,7.69
2023-03-12T21:00:17.838Z,7.23
2023-03-12T21:02:44.889Z,6.83
2023-03-12T21:05:31.658Z,6.89
2023-03-12T21:07:58.926Z,6.21
2023-03-12T21:10:25.878Z,6.05
2023-03-12T21:12:52.975Z,5.51
2023-03-12T21:15:19.941Z,6.10
2023-03-12T21:17:47.556Z,6.40
2023-03-12T21:20:17.336Z,6.56
2023-03-12T21:22:46.938Z,6.41
2023-03-12T21:25:38.584Z,6.20
2023-03-12T21:28:10.877Z,5.80
2023-03-12T21:30:41.957Z,6.11
2023-03-12T21:33:08.920Z,5.52
2023-03-12T21:35:35.872Z,6.23
2023-03-12T21:38:03.195Z,6.26
2023-03-12T21:40:30.134Z,6.65
2023-03-12T21:42:57.623Z,6.30
2023-03-12T21:45:25.809Z,6.86
2023-03-12T21:47:54.188Z,6.96
2023-03-12T21:50:21.319Z,6.79
2023-03-12T21:52:49.677Z,6.19
2023-03-12T21:55:17.893Z,6.17
2023-03-12T21:58:04.763Z,6.82
2023-03-12T22:00:36.991Z,6.47
2023-03-12T22:03:04.175Z,6.72
2023-03-12T22:05:31.636Z,6.33
2023-03-12T22:07:58.916Z,6.29
2023-03-12T22:10:26.265Z,5.95
2023-03-12T22:12:53.442Z,5.87
2023-03-12T22:15:20.295Z,6.07
2023-03-12T22:17:47.246Z,5.65
2023-03-12T22:20:14.153Z,6.22
2023-03-12T22:22:41.234Z,6.54
2023-03-12T22:25:08.801Z,5.56
2023-03-12T22:27:35.766Z,5.13
2023-03-12T22:30:02.649Z,5.76
2023-03-12T22:32:29.550Z,5.91
2023-03-12T22:34:56.521Z,5.67
2023-03-12T22:37:23.535Z,6.11
2023-03-12T22:39:51.653Z,5.92
2023-03-12T22:42:18.567Z,5.83
2023-03-12T22:44:45.474Z,5.45
2023-03-12T22:47:12.403Z,5.31
2023-03-12T22:49:39.394Z,5.40
2023-03-12T22:52:06.711Z,5.18
2023-03-12T22:54:33.670Z,5.15
2023-03-12T22:57:00.665Z,4.66
2023-03-12T22:59:27.614Z,5.13
2023-03-12T23:01:54.608Z,4.89
2023-03-12T23:04:21.658Z,5.37
2023-03-12T23:06:48.675Z,5.63
2023-03-12T23:09:15.648Z,4.68
2023-03-12T23:11:42.599Z,5.60
2023-03-12T23:14:09.581Z,5.15
2023-03-12T23:16:36.467Z,4.49
2023-03-12T23:19:03.598Z,4.68
2023-03-12T23:21:31.078Z,4.58
2023-03-12T23:23:59.994Z,4.84
2023-03-12T23:26:28.372Z,4.47
2023-03-12T23:28:57.224Z,4.73
2023-03-12T23:31:24.924Z,4.99
2023-03-12T23:33:52.357Z,5.26
2023-03-12T23:36:22.108Z,5.52
2023-03-12T23:38:49.956Z,5.77
2023-03-12T23:41:22.835Z,5.92
2023-03-12T23:43:50.195Z,5.73
2023-03-12T23:46:18.239Z,5.61
2023-03-12T23:48:45.947Z,5.43
2023-03-12T23:51:15.662Z,5.03
2023-03-12T23:53:44.949Z,5.26
2023-03-12T23:56:19.619Z,4.97
2023-03-12T23:58:47.386Z,5.33
